sensor_id;sensor_type;location;lat;lon;timestamp;temperature;humidity
4811;DHT22;2419;51.276;6.472;2023-06-10T00:01:11;20.60;99.90
4811;DHT22;2419;51.276;6.472;2023-06-10T00:03:39;20.60;99.90
4811;DHT22;2419;51.276;6.472;2023-06-10T00:06:08;20.50;99.90
4811;DHT22;2419;51.276;6.472;2023-06-10T00:08:36;20.40;99.90
4811;DHT22;2419;51.276;6.472;2023-06-10T00:11:04;20.50;99.90
4811;DHT22;2419;51.276;6.472;2023-06-10T00:13:33;20.40;99.90
4811;DHT22;2419;51.276;6.472;2023-06-10T00:16:02;20.40;99.90
4811;DHT22;2419;51.276;6.472;2023-06-10T00:18:31;20.40;99.90
4811;DHT22;2419;51.276;6.472;2023-06-10T00:20:59;20.30;99.90
4811;DHT22;2419;51.276;6.472;2023-06-10T00:23:31;20.20;99.90
4811;DHT22;2419;51.276;6.472;2023-06-10T00:26:04;20.30;99.90
4811;DHT22;2419;51.276;6.472;2023-06-10T00:28:34;20.20;99.90
4811;DHT22;2419;51.276;6.472;2023-06-10T00:31:02;20.10;99.90
4811;DHT22;2419;51.276;6.472;2023-06-10T00:33:31;20.20;99.90
4811;DHT22;2419;51.276;6.472;2023-06-10T00:35:59;20.10;99.90
4811;DHT22;2419;51.276;6.472;2023-06-10T00:38:27;20.00;99.90
4811;DHT22;2419;51.276;6.472;2023-06-10T00:40:55;20.00;99.90
4811;DHT22;2419;51.276;6.472;2023-06-10T00:43:24;20.00;99.90
4811;DHT22;2419;51.276;6.472;2023-06-10T00:45:53;20.00;1.00
4811;DHT22;2419;51.276;6.472;2023-06-10T00:48:22;19.90;1.00
4811;DHT22;2419;51.276;6.472;2023-06-10T00:50:50;19.90;1.00
4811;DHT22;2419;51.276;6.472;2023-06-10T00:53:19;19.80;1.00
4811;DHT22;2419;51.276;6.472;2023-06-10T00:55:47;19.80;1.00
4811;DHT22;2419;51.276;6.472;2023-06-10T00:58:15;19.80;1.00
4811;DHT22;2419;51.276;6.472;2023-06-10T01:00:43;19.60;1.00
4811;DHT22;2419;51.276;6.472;2023-06-10T01:03:14;19.70;87.80
4811;DHT22;2419;51.276;6.472;2023-06-10T01:05:46;19.70;31.70
4811;DHT22;2419;51.276;6.472;2023-06-10T01:08:22;19.60;99.90
4811;DHT22;2419;51.276;6.472;2023-06-10T01:10:59;19.40;99.90
4811;DHT22;2419;51.276;6.472;2023-06-10T01:13:28;19.40;99.90
4811;DHT22;2419;51.276;6.472;2023-06-10T01:15:58;19.40;1.00
4811;DHT22;2419;51.276;6.472;2023-06-10T01:18:31;19.30;99.90
4811;DHT22;2419;51.276;6.472;2023-06-10T01:20:59;19.30;1.00
4811;DHT22;2419;51.276;6.472;2023-06-10T01:23:29;19.20;99.90
4811;DHT22;2419;51.276;6.472;2023-06-10T01:26:00;19.20;99.90
4811;DHT22;2419;51.276;6.472;2023-06-10T01:28:33;19.20;99.90
4811;DHT22;2419;51.276;6.472;2023-06-10T01:31:08;19.30;99.90
4811;DHT22;2419;51.276;6.472;2023-06-10T01:33:45;19.20;99.90
4811;DHT22;2419;51.276;6.472;2023-06-10T01:36:15;19.20;99.90
4811;DHT22;2419;51.276;6.472;2023-06-10T01:38:47;19.30;99.90
4811;DHT22;2419;51.276;6.472;2023-06-10T01:41:17;19.20;99.90
4811;DHT22;2419;51.276;6.472;2023-06-10T01:43:45;19.20;99.90
4811;DHT22;2419;51.276;6.472;2023-06-10T01:46:14;19.20;1.00
4811;DHT22;2419;51.276;6.472;2023-06-10T01:48:46;19.00;99.90
4811;DHT22;2419;51.276;6.472;2023-06-10T01:51:15;19.00;1.00
4811;DHT22;2419;51.276;6.472;2023-06-10T01:53:44;18.90;99.90
4811;DHT22;2419;51.276;6.472;2023-06-10T01:56:13;18.90;92.80
4811;DHT22;2419;51.276;6.472;2023-06-10T01:58:45;19.00;99.90
4811;DHT22;2419;51.276;6.472;2023-06-10T02:01:13;18.80;1.00
4811;DHT22;2419;51.276;6.472;2023-06-10T02:03:42;18.80;99.90
4811;DHT22;2419;51.276;6.472;2023-06-10T02:06:10;18.80;99.90
4811;DHT22;2419;51.276;6.472;2023-06-10T02:08:38;18.80;1.00
4811;DHT22;2419;51.276;6.472;2023-06-10T02:11:07;18.80;99.90
4811;DHT22;2419;51.276;6.472;2023-06-10T02:13:35;18.90;99.90
4811;DHT22;2419;51.276;6.472;2023-06-10T02:16:04;19.00;99.90
4811;DHT22;2419;51.276;6.472;2023-06-10T02:18:33;19.00;99.90
4811;DHT22;2419;51.276;6.472;2023-06-10T02:21:01;19.00;99.90
4811;DHT22;2419;51.276;6.472;2023-06-10T02:23:29;18.90;99.90
4811;DHT22;2419;51.276;6.472;2023-06-10T02:25:57;18.90;99.90
4811;DHT22;2419;51.276;6.472;2023-06-10T02:28:27;18.90;99.90
4811;DHT22;2419;51.276;6.472;2023-06-10T02:30:56;18.90;99.90
4811;DHT22;2419;51.276;6.472;2023-06-10T02:33:26;18.80;99.90
4811;DHT22;2419;51.276;6.472;2023-06-10T02:35:55;18.80;99.90
4811;DHT22;2419;51.276;6.472;2023-06-10T02:38:24;18.80;99.90
4811;DHT22;2419;51.276;6.472;2023-06-10T02:40:53;18.80;1.00
4811;DHT22;2419;51.276;6.472;2023-06-10T02:43:22;18.80;1.00
4811;DHT22;2419;51.276;6.472;2023-06-10T02:45:52;18.60;37.30
4811;DHT22;2419;51.276;6.472;2023-06-10T02:48:21;18.60;1.00
4811;DHT22;2419;51.276;6.472;2023-06-10T02:50:49;18.60;99.90
4811;DHT22;2419;51.276;6.472;2023-06-10T02:53:23;18.50;99.90
4811;DHT22;2419;51.276;6.472;2023-06-10T02:55:58;18.50;99.90
4811;DHT22;2419;51.276;6.472;2023-06-10T02:58:26;18.50;99.90
4811;DHT22;2419;51.276;6.472;2023-06-10T03:00:56;18.60;6.70
4811;DHT22;2419;51.276;6.472;2023-06-10T03:03:27;18.60;96.60
4811;DHT22;2419;51.276;6.472;2023-06-10T03:06:02;18.60;99.90
4811;DHT22;2419;51.276;6.472;2023-06-10T03:08:31;18.50;99.90
4811;DHT22;2419;51.276;6.472;2023-06-10T03:11:03;18.30;99.90
4811;DHT22;2419;51.276;6.472;2023-06-10T03:13:33;18.30;99.90
4811;DHT22;2419;51.276;6.472;2023-06-10T03:16:04;18.30;99.90
4811;DHT22;2419;51.276;6.472;2023-06-10T03:18:35;18.30;99.90
4811;DHT22;2419;51.276;6.472;2023-06-10T03:21:04;18.20;49.40
4811;DHT22;2419;51.276;6.472;2023-06-10T03:23:32;18.30;99.90
4811;DHT22;2419;51.276;6.472;2023-06-10T03:26:02;18.30;99.90
4811;DHT22;2419;51.276;6.472;2023-06-10T03:28:33;18.30;99.90
4811;DHT22;2419;51.276;6.472;2023-06-10T03:31:01;18.30;1.00
4811;DHT22;2419;51.276;6.472;2023-06-10T03:33:33;18.20;1.00
4811;DHT22;2419;51.276;6.472;2023-06-10T03:36:01;18.30;11.80
4811;DHT22;2419;51.276;6.472;2023-06-10T03:38:30;18.30;99.90
4811;DHT22;2419;51.276;6.472;2023-06-10T03:40:58;18.40;99.90
4811;DHT22;2419;51.276;6.472;2023-06-10T03:43:26;18.40;99.90
4811;DHT22;2419;51.276;6.472;2023-06-10T03:45:54;18.40;99.90
4811;DHT22;2419;51.276;6.472;2023-06-10T03:48:22;18.40;99.90
4811;DHT22;2419;51.276;6.472;2023-06-10T03:50:53;18.40;99.90
4811;DHT22;2419;51.276;6.472;2023-06-10T03:53:22;18.30;99.90
4811;DHT22;2419;51.276;6.472;2023-06-10T03:55:50;18.20;1.00
4811;DHT22;2419;51.276;6.472;2023-06-10T03:58:22;18.30;99.90
4811;DHT22;2419;51.276;6.472;2023-06-10T04:00:50;18.20;99.90
4811;DHT22;2419;51.276;6.472;2023-06-10T04:03:25;18.20;92.30
4811;DHT22;2419;51.276;6.472;2023-06-10T04:05:55;18.30;99.90
4811;DHT22;2419;51.276;6.472;2023-06-10T04:08:25;18.40;1.00
4811;DHT22;2419;51.276;6.472;2023-06-10T04:10:53;18.50;1.00
4811;DHT22;2419;51.276;6.472;2023-06-10T04:13:21;18.50;1.00
4811;DHT22;2419;51.276;6.472;2023-06-10T04:15:53;18.50;1.00
4811;DHT22;2419;51.276;6.472;2023-06-10T04:18:22;18.50;1.00
4811;DHT22;2419;51.276;6.472;2023-06-10T04:20:54;18.50;1.00
4811;DHT22;2419;51.276;6.472;2023-06-10T04:23:24;18.60;99.90
4811;DHT22;2419;51.276;6.472;2023-06-10T04:25:53;18.70;99.90
4811;DHT22;2419;51.276;6.472;2023-06-10T04:28:21;18.80;99.90
4811;DHT22;2419;51.276;6.472;2023-06-10T04:30:49;18.80;99.90
4811;DHT22;2419;51.276;6.472;2023-06-10T04:33:17;18.90;1.00
4811;DHT22;2419;51.276;6.472;2023-06-10T04:35:45;18.90;99.90
4811;DHT22;2419;51.276;6.472;2023-06-10T04:38:15;19.00;99.90
4811;DHT22;2419;51.276;6.472;2023-06-10T04:40:44;19.10;99.90
4811;DHT22;2419;51.276;6.472;2023-06-10T04:43:14;19.20;91.90
4811;DHT22;2419;51.276;6.472;2023-06-10T04:45:44;19.30;30.20
4811;DHT22;2419;51.276;6.472;2023-06-10T04:48:13;19.50;1.30
4811;DHT22;2419;51.276;6.472;2023-06-10T04:50:41;19.50;1.00
4811;DHT22;2419;51.276;6.472;2023-06-10T04:53:10;19.60;1.00
4811;DHT22;2419;51.276;6.472;2023-06-10T04:55:42;19.70;99.90
4811;DHT22;2419;51.276;6.472;2023-06-10T04:58:10;19.80;99.90
4811;DHT22;2419;51.276;6.472;2023-06-10T05:00:38;19.80;99.90
4811;DHT22;2419;51.276;6.472;2023-06-10T05:03:06;20.00;99.90
4811;DHT22;2419;51.276;6.472;2023-06-10T05:05:34;20.10;99.90
4811;DHT22;2419;51.276;6.472;2023-06-10T05:08:03;20.30;99.90
4811;DHT22;2419;51.276;6.472;2023-06-10T05:10:34;20.40;99.90
4811;DHT22;2419;51.276;6.472;2023-06-10T05:13:03;20.50;99.90
4811;DHT22;2419;51.276;6.472;2023-06-10T05:15:31;20.50;1.00
4811;DHT22;2419;51.276;6.472;2023-06-10T05:17:59;20.70;1.00
4811;DHT22;2419;51.276;6.472;2023-06-10T05:20:29;20.90;1.00
4811;DHT22;2419;51.276;6.472;2023-06-10T05:22:57;21.10;99.90
4811;DHT22;2419;51.276;6.472;2023-06-10T05:25:26;21.20;99.90
4811;DHT22;2419;51.276;6.472;2023-06-10T05:27:54;21.30;99.90
4811;DHT22;2419;51.276;6.472;2023-06-10T05:30:23;21.40;99.90
4811;DHT22;2419;51.276;6.472;2023-06-10T05:32:52;21.40;52.90
4811;DHT22;2419;51.276;6.472;2023-06-10T05:35:20;21.50;21.50
4811;DHT22;2419;51.276;6.472;2023-06-10T05:37:49;21.50;1.00
4811;DHT22;2419;51.276;6.472;2023-06-10T05:40:17;21.60;1.00
4811;DHT22;2419;51.276;6.472;2023-06-10T05:42:45;21.70;99.90
4811;DHT22;2419;51.276;6.472;2023-06-10T05:45:13;21.90;99.90
4811;DHT22;2419;51.276;6.472;2023-06-10T05:47:42;21.90;99.90
4811;DHT22;2419;51.276;6.472;2023-06-10T05:50:10;21.90;99.90
4811;DHT22;2419;51.276;6.472;2023-06-10T05:52:38;22.00;99.90
4811;DHT22;2419;51.276;6.472;2023-06-10T05:55:08;22.00;99.90
4811;DHT22;2419;51.276;6.472;2023-06-10T05:57:37;22.00;99.90
4811;DHT22;2419;51.276;6.472;2023-06-10T06:00:06;22.10;99.90
4811;DHT22;2419;51.276;6.472;2023-06-10T06:02:42;22.20;91.30
4811;DHT22;2419;51.276;6.472;2023-06-10T06:05:10;22.30;46.80
4811;DHT22;2419;51.276;6.472;2023-06-10T06:07:39;22.20;41.30
4811;DHT22;2419;51.276;6.472;2023-06-10T06:10:07;22.30;12.60
4811;DHT22;2419;51.276;6.472;2023-06-10T06:12:35;22.40;1.00
4811;DHT22;2419;51.276;6.472;2023-06-10T06:15:04;22.50;1.00
4811;DHT22;2419;51.276;6.472;2023-06-10T06:17:32;22.50;1.00
4811;DHT22;2419;51.276;6.472;2023-06-10T06:20:02;22.50;1.00
4811;DHT22;2419;51.276;6.472;2023-06-10T06:22:30;22.50;99.90
4811;DHT22;2419;51.276;6.472;2023-06-10T06:24:58;22.50;99.90
4811;DHT22;2419;51.276;6.472;2023-06-10T06:27:26;22.60;99.90
4811;DHT22;2419;51.276;6.472;2023-06-10T06:29:54;22.80;99.90
4811;DHT22;2419;51.276;6.472;2023-06-10T06:32:24;22.90;99.90
4811;DHT22;2419;51.276;6.472;2023-06-10T06:34:54;23.00;99.90
4811;DHT22;2419;51.276;6.472;2023-06-10T06:37:24;23.00;99.90
4811;DHT22;2419;51.276;6.472;2023-06-10T06:40:07;23.10;99.90
4811;DHT22;2419;51.276;6.472;2023-06-10T06:42:35;23.20;99.90
4811;DHT22;2419;51.276;6.472;2023-06-10T06:45:13;23.30;99.90
4811;DHT22;2419;51.276;6.472;2023-06-10T06:47:41;23.30;99.90
4811;DHT22;2419;51.276;6.472;2023-06-10T06:50:10;23.30;99.90
4811;DHT22;2419;51.276;6.472;2023-06-10T06:52:39;23.40;99.90
4811;DHT22;2419;51.276;6.472;2023-06-10T06:55:08;23.30;99.90
4811;DHT22;2419;51.276;6.472;2023-06-10T06:57:36;23.40;96.90
4811;DHT22;2419;51.276;6.472;2023-06-10T07:00:05;23.40;95.10
4811;DHT22;2419;51.276;6.472;2023-06-10T07:02:35;23.40;86.10
4811;DHT22;2419;51.276;6.472;2023-06-10T07:05:03;23.40;72.60
4811;DHT22;2419;51.276;6.472;2023-06-10T07:07:33;23.60;53.10
4811;DHT22;2419;51.276;6.472;2023-06-10T07:10:03;23.60;34.80
4811;DHT22;2419;51.276;6.472;2023-06-10T07:12:31;23.70;32.70
4811;DHT22;2419;51.276;6.472;2023-06-10T07:14:59;23.80;1.00
4811;DHT22;2419;51.276;6.472;2023-06-10T07:17:27;23.80;1.00
4811;DHT22;2419;51.276;6.472;2023-06-10T07:19:55;23.70;1.00
4811;DHT22;2419;51.276;6.472;2023-06-10T07:22:24;23.80;1.00
4811;DHT22;2419;51.276;6.472;2023-06-10T07:24:53;23.80;1.00
4811;DHT22;2419;51.276;6.472;2023-06-10T07:27:23;23.90;1.00
4811;DHT22;2419;51.276;6.472;2023-06-10T07:29:51;24.00;1.00
4811;DHT22;2419;51.276;6.472;2023-06-10T07:32:19;24.10;1.00
4811;DHT22;2419;51.276;6.472;2023-06-10T07:34:50;24.10;1.00
4811;DHT22;2419;51.276;6.472;2023-06-10T07:37:18;24.20;1.00
4811;DHT22;2419;51.276;6.472;2023-06-10T07:39:47;24.40;1.00
4811;DHT22;2419;51.276;6.472;2023-06-10T07:42:15;24.40;1.00
4811;DHT22;2419;51.276;6.472;2023-06-10T07:44:44;24.60;1.00
4811;DHT22;2419;51.276;6.472;2023-06-10T07:47:12;24.70;1.00
4811;DHT22;2419;51.276;6.472;2023-06-10T07:49:40;24.70;1.00
4811;DHT22;2419;51.276;6.472;2023-06-10T07:52:08;24.70;99.90
4811;DHT22;2419;51.276;6.472;2023-06-10T07:54:37;24.80;1.00
4811;DHT22;2419;51.276;6.472;2023-06-10T07:57:05;24.90;99.90
4811;DHT22;2419;51.276;6.472;2023-06-10T07:59:34;25.00;99.90
4811;DHT22;2419;51.276;6.472;2023-06-10T08:02:04;25.20;99.90
4811;DHT22;2419;51.276;6.472;2023-06-10T08:04:32;25.10;99.90
4811;DHT22;2419;51.276;6.472;2023-06-10T08:07:02;25.00;99.90
4811;DHT22;2419;51.276;6.472;2023-06-10T08:09:30;25.10;99.90
4811;DHT22;2419;51.276;6.472;2023-06-10T08:11:58;25.00;99.90
4811;DHT22;2419;51.276;6.472;2023-06-10T08:14:26;25.10;99.90
4811;DHT22;2419;51.276;6.472;2023-06-10T08:16:54;25.30;99.90
4811;DHT22;2419;51.276;6.472;2023-06-10T08:19:24;25.30;99.90
4811;DHT22;2419;51.276;6.472;2023-06-10T08:21:52;25.20;99.90
4811;DHT22;2419;51.276;6.472;2023-06-10T08:24:20;25.20;99.90
4811;DHT22;2419;51.276;6.472;2023-06-10T08:26:48;25.40;99.90
4811;DHT22;2419;51.276;6.472;2023-06-10T08:29:16;25.50;99.90
4811;DHT22;2419;51.276;6.472;2023-06-10T08:31:44;25.60;99.90
4811;DHT22;2419;51.276;6.472;2023-06-10T08:34:12;25.60;99.90
4811;DHT22;2419;51.276;6.472;2023-06-10T08:36:43;25.60;99.90
4811;DHT22;2419;51.276;6.472;2023-06-10T08:39:12;25.70;99.90
4811;DHT22;2419;51.276;6.472;2023-06-10T08:41:43;25.60;99.90
4811;DHT22;2419;51.276;6.472;2023-06-10T08:44:16;25.50;99.90
4811;DHT22;2419;51.276;6.472;2023-06-10T08:46:46;25.80;99.90
4811;DHT22;2419;51.276;6.472;2023-06-10T08:49:18;25.90;99.90
4811;DHT22;2419;51.276;6.472;2023-06-10T08:51:50;26.00;99.90
4811;DHT22;2419;51.276;6.472;2023-06-10T08:54:21;26.20;99.90
4811;DHT22;2419;51.276;6.472;2023-06-10T08:56:54;26.40;99.90
4811;DHT22;2419;51.276;6.472;2023-06-10T08:59:23;26.30;99.90
4811;DHT22;2419;51.276;6.472;2023-06-10T09:01:53;26.30;99.90
4811;DHT22;2419;51.276;6.472;2023-06-10T09:04:24;26.70;99.90
4811;DHT22;2419;51.276;6.472;2023-06-10T09:06:54;26.80;99.90
4811;DHT22;2419;51.276;6.472;2023-06-10T09:09:23;26.70;99.90
4811;DHT22;2419;51.276;6.472;2023-06-10T09:11:51;27.00;99.90
4811;DHT22;2419;51.276;6.472;2023-06-10T09:14:19;26.90;99.90
4811;DHT22;2419;51.276;6.472;2023-06-10T09:16:47;26.90;99.90
4811;DHT22;2419;51.276;6.472;2023-06-10T09:19:16;27.10;99.90
4811;DHT22;2419;51.276;6.472;2023-06-10T09:21:45;27.20;99.90
4811;DHT22;2419;51.276;6.472;2023-06-10T09:24:15;27.60;99.90
4811;DHT22;2419;51.276;6.472;2023-06-10T09:26:44;27.70;99.90
4811;DHT22;2419;51.276;6.472;2023-06-10T09:29:12;27.70;99.90
4811;DHT22;2419;51.276;6.472;2023-06-10T09:31:40;27.60;99.90
4811;DHT22;2419;51.276;6.472;2023-06-10T09:34:10;28.10;99.90
4811;DHT22;2419;51.276;6.472;2023-06-10T09:36:39;27.80;99.90
4811;DHT22;2419;51.276;6.472;2023-06-10T09:39:16;28.10;99.90
4811;DHT22;2419;51.276;6.472;2023-06-10T09:41:45;28.20;99.90
4811;DHT22;2419;51.276;6.472;2023-06-10T09:44:14;28.30;99.90
4811;DHT22;2419;51.276;6.472;2023-06-10T09:46:45;28.30;99.90
4811;DHT22;2419;51.276;6.472;2023-06-10T09:49:13;28.50;99.90
4811;DHT22;2419;51.276;6.472;2023-06-10T09:51:49;28.60;99.90
4811;DHT22;2419;51.276;6.472;2023-06-10T09:54:20;28.30;99.90
4811;DHT22;2419;51.276;6.472;2023-06-10T09:56:51;28.70;99.90
4811;DHT22;2419;51.276;6.472;2023-06-10T09:59:28;28.90;99.90
4811;DHT22;2419;51.276;6.472;2023-06-10T10:01:58;29.20;99.90
4811;DHT22;2419;51.276;6.472;2023-06-10T10:04:27;29.30;99.90
4811;DHT22;2419;51.276;6.472;2023-06-10T10:06:56;29.50;99.90
4811;DHT22;2419;51.276;6.472;2023-06-10T10:09:27;29.70;99.90
4811;DHT22;2419;51.276;6.472;2023-06-10T10:11:56;30.00;99.90
4811;DHT22;2419;51.276;6.472;2023-06-10T10:14:25;30.00;99.90
4811;DHT22;2419;51.276;6.472;2023-06-10T10:16:55;29.60;99.90
4811;DHT22;2419;51.276;6.472;2023-06-10T10:19:28;29.90;99.90
4811;DHT22;2419;51.276;6.472;2023-06-10T10:22:01;30.20;99.90
4811;DHT22;2419;51.276;6.472;2023-06-10T10:24:34;30.20;99.90
4811;DHT22;2419;51.276;6.472;2023-06-10T10:27:11;30.50;99.90
4811;DHT22;2419;51.276;6.472;2023-06-10T10:29:42;30.50;99.90
4811;DHT22;2419;51.276;6.472;2023-06-10T10:32:14;30.80;99.90
4811;DHT22;2419;51.276;6.472;2023-06-10T10:34:50;30.80;99.90
4811;DHT22;2419;51.276;6.472;2023-06-10T10:37:21;31.30;99.90
4811;DHT22;2419;51.276;6.472;2023-06-10T10:39:52;31.40;99.90
4811;DHT22;2419;51.276;6.472;2023-06-10T10:42:21;31.00;99.90
4811;DHT22;2419;51.276;6.472;2023-06-10T10:44:50;31.10;99.90
4811;DHT22;2419;51.276;6.472;2023-06-10T10:47:21;31.10;99.90
4811;DHT22;2419;51.276;6.472;2023-06-10T10:49:51;31.20;99.90
4811;DHT22;2419;51.276;6.472;2023-06-10T10:52:20;31.30;99.90
4811;DHT22;2419;51.276;6.472;2023-06-10T10:54:53;31.70;99.90
4811;DHT22;2419;51.276;6.472;2023-06-10T10:57:23;31.80;99.90
4811;DHT22;2419;51.276;6.472;2023-06-10T10:59:54;32.10;99.90
4811;DHT22;2419;51.276;6.472;2023-06-10T11:02:35;32.00;99.90
4811;DHT22;2419;51.276;6.472;2023-06-10T11:05:06;32.30;99.90
4811;DHT22;2419;51.276;6.472;2023-06-10T11:07:36;32.30;99.90
4811;DHT22;2419;51.276;6.472;2023-06-10T11:10:08;32.20;99.90
4811;DHT22;2419;51.276;6.472;2023-06-10T11:12:51;32.30;99.90
4811;DHT22;2419;51.276;6.472;2023-06-10T11:15:22;32.60;99.90
4811;DHT22;2419;51.276;6.472;2023-06-10T11:18:11;32.40;99.90
4811;DHT22;2419;51.276;6.472;2023-06-10T11:20:52;32.30;99.90
4811;DHT22;2419;51.276;6.472;2023-06-10T11:23:38;32.10;99.90
4811;DHT22;2419;51.276;6.472;2023-06-10T11:26:30;32.10;99.90
4811;DHT22;2419;51.276;6.472;2023-06-10T11:29:06;32.50;99.90
4811;DHT22;2419;51.276;6.472;2023-06-10T11:31:41;32.70;99.90
4811;DHT22;2419;51.276;6.472;2023-06-10T11:34:10;32.50;99.90
4811;DHT22;2419;51.276;6.472;2023-06-10T11:36:39;31.50;99.90
4811;DHT22;2419;51.276;6.472;2023-06-10T11:39:10;31.50;99.90
4811;DHT22;2419;51.276;6.472;2023-06-10T11:41:39;31.70;99.90
4811;DHT22;2419;51.276;6.472;2023-06-10T11:44:09;32.20;99.90
4811;DHT22;2419;51.276;6.472;2023-06-10T11:46:38;32.40;99.90
4811;DHT22;2419;51.276;6.472;2023-06-10T11:49:07;32.50;99.90
4811;DHT22;2419;51.276;6.472;2023-06-10T11:51:38;32.30;99.90
4811;DHT22;2419;51.276;6.472;2023-06-10T11:54:09;32.30;99.90
4811;DHT22;2419;51.276;6.472;2023-06-10T11:56:38;32.30;99.90
4811;DHT22;2419;51.276;6.472;2023-06-10T11:59:07;32.50;99.90
4811;DHT22;2419;51.276;6.472;2023-06-10T12:01:36;32.40;99.90
4811;DHT22;2419;51.276;6.472;2023-06-10T12:04:10;32.30;99.90
4811;DHT22;2419;51.276;6.472;2023-06-10T12:06:41;31.90;99.90
4811;DHT22;2419;51.276;6.472;2023-06-10T12:09:14;31.50;99.90
4811;DHT22;2419;51.276;6.472;2023-06-10T12:11:55;31.40;99.90
4811;DHT22;2419;51.276;6.472;2023-06-10T12:14:49;31.10;99.90
4811;DHT22;2419;51.276;6.472;2023-06-10T12:17:18;30.70;99.90
4811;DHT22;2419;51.276;6.472;2023-06-10T12:19:46;30.60;99.90
4811;DHT22;2419;51.276;6.472;2023-06-10T12:22:14;30.70;99.90
4811;DHT22;2419;51.276;6.472;2023-06-10T12:24:56;31.30;99.90
4811;DHT22;2419;51.276;6.472;2023-06-10T12:27:27;31.40;99.90
4811;DHT22;2419;51.276;6.472;2023-06-10T12:29:58;31.60;99.90
4811;DHT22;2419;51.276;6.472;2023-06-10T12:32:38;31.50;99.90
4811;DHT22;2419;51.276;6.472;2023-06-10T12:35:10;31.60;99.90
4811;DHT22;2419;51.276;6.472;2023-06-10T12:37:40;31.70;99.90
4811;DHT22;2419;51.276;6.472;2023-06-10T12:40:10;31.90;99.90
4811;DHT22;2419;51.276;6.472;2023-06-10T12:42:40;32.00;99.90
4811;DHT22;2419;51.276;6.472;2023-06-10T12:45:09;31.80;99.90
4811;DHT22;2419;51.276;6.472;2023-06-10T12:47:39;31.90;99.90
4811;DHT22;2419;51.276;6.472;2023-06-10T12:50:09;31.50;99.90
4811;DHT22;2419;51.276;6.472;2023-06-10T12:52:40;31.30;99.90
4811;DHT22;2419;51.276;6.472;2023-06-10T12:55:09;30.70;99.90
4811;DHT22;2419;51.276;6.472;2023-06-10T12:57:49;31.00;99.90
4811;DHT22;2419;51.276;6.472;2023-06-10T13:00:18;30.80;99.90
4811;DHT22;2419;51.276;6.472;2023-06-10T13:02:47;30.60;99.90
4811;DHT22;2419;51.276;6.472;2023-06-10T13:05:16;30.50;99.90
4811;DHT22;2419;51.276;6.472;2023-06-10T13:07:45;30.00;99.90
4811;DHT22;2419;51.276;6.472;2023-06-10T13:10:14;29.90;99.90
4811;DHT22;2419;51.276;6.472;2023-06-10T13:12:43;29.80;99.90
4811;DHT22;2419;51.276;6.472;2023-06-10T13:15:16;29.70;99.90
4811;DHT22;2419;51.276;6.472;2023-06-10T13:17:45;29.60;99.90
4811;DHT22;2419;51.276;6.472;2023-06-10T13:20:16;29.60;99.90
4811;DHT22;2419;51.276;6.472;2023-06-10T13:22:45;29.20;99.90
4811;DHT22;2419;51.276;6.472;2023-06-10T13:25:14;29.10;99.90
4811;DHT22;2419;51.276;6.472;2023-06-10T13:27:42;29.30;99.90
4811;DHT22;2419;51.276;6.472;2023-06-10T13:30:11;29.40;99.90
4811;DHT22;2419;51.276;6.472;2023-06-10T13:32:40;29.50;99.90
4811;DHT22;2419;51.276;6.472;2023-06-10T13:35:09;29.60;99.90
4811;DHT22;2419;51.276;6.472;2023-06-10T13:37:37;29.90;99.90
4811;DHT22;2419;51.276;6.472;2023-06-10T13:40:06;30.40;99.90
4811;DHT22;2419;51.276;6.472;2023-06-10T13:42:36;31.00;99.90
4811;DHT22;2419;51.276;6.472;2023-06-10T13:45:05;31.10;99.90
4811;DHT22;2419;51.276;6.472;2023-06-10T13:47:34;31.40;99.90
4811;DHT22;2419;51.276;6.472;2023-06-10T13:50:04;31.50;99.90
4811;DHT22;2419;51.276;6.472;2023-06-10T13:52:32;31.60;99.90
4811;DHT22;2419;51.276;6.472;2023-06-10T13:55:00;31.30;99.90
4811;DHT22;2419;51.276;6.472;2023-06-10T13:57:28;30.90;99.90
4811;DHT22;2419;51.276;6.472;2023-06-10T13:59:56;30.60;99.90
4811;DHT22;2419;51.276;6.472;2023-06-10T14:02:24;30.50;99.90
4811;DHT22;2419;51.276;6.472;2023-06-10T14:04:53;30.40;99.90
4811;DHT22;2419;51.276;6.472;2023-06-10T14:07:22;30.20;99.90
4811;DHT22;2419;51.276;6.472;2023-06-10T14:09:50;30.10;99.90
4811;DHT22;2419;51.276;6.472;2023-06-10T14:12:18;30.00;99.90
4811;DHT22;2419;51.276;6.472;2023-06-10T14:14:46;30.10;99.90
4811;DHT22;2419;51.276;6.472;2023-06-10T14:17:14;30.00;99.90
4811;DHT22;2419;51.276;6.472;2023-06-10T14:19:42;30.50;99.90
4811;DHT22;2419;51.276;6.472;2023-06-10T14:22:13;31.00;99.90
4811;DHT22;2419;51.276;6.472;2023-06-10T14:24:42;31.00;99.90
4811;DHT22;2419;51.276;6.472;2023-06-10T14:27:10;30.60;99.90
4811;DHT22;2419;51.276;6.472;2023-06-10T14:29:38;30.30;99.90
4811;DHT22;2419;51.276;6.472;2023-06-10T14:32:07;30.10;99.90
4811;DHT22;2419;51.276;6.472;2023-06-10T14:34:35;29.90;99.90
4811;DHT22;2419;51.276;6.472;2023-06-10T14:37:05;29.70;99.90
4811;DHT22;2419;51.276;6.472;2023-06-10T14:39:34;29.70;99.90
4811;DHT22;2419;51.276;6.472;2023-06-10T14:42:05;29.80;99.90
4811;DHT22;2419;51.276;6.472;2023-06-10T14:44:33;29.70;99.90
4811;DHT22;2419;51.276;6.472;2023-06-10T14:47:01;29.80;99.90
4811;DHT22;2419;51.276;6.472;2023-06-10T14:49:29;29.60;99.90
4811;DHT22;2419;51.276;6.472;2023-06-10T14:51:57;29.60;99.90
4811;DHT22;2419;51.276;6.472;2023-06-10T14:54:25;29.70;99.90
4811;DHT22;2419;51.276;6.472;2023-06-10T14:56:54;29.60;99.90
4811;DHT22;2419;51.276;6.472;2023-06-10T14:59:23;29.70;99.90
4811;DHT22;2419;51.276;6.472;2023-06-10T15:01:51;30.00;99.90
4811;DHT22;2419;51.276;6.472;2023-06-10T15:04:20;30.30;99.90
4811;DHT22;2419;51.276;6.472;2023-06-10T15:06:50;30.20;99.90
4811;DHT22;2419;51.276;6.472;2023-06-10T15:09:18;30.30;99.90
4811;DHT22;2419;51.276;6.472;2023-06-10T15:11:46;30.20;99.90
4811;DHT22;2419;51.276;6.472;2023-06-10T15:14:14;29.50;99.90
4811;DHT22;2419;51.276;6.472;2023-06-10T15:16:44;28.50;99.90
4811;DHT22;2419;51.276;6.472;2023-06-10T15:19:12;27.90;99.90
4811;DHT22;2419;51.276;6.472;2023-06-10T15:21:40;27.60;99.90
4811;DHT22;2419;51.276;6.472;2023-06-10T15:24:09;27.40;99.90
4811;DHT22;2419;51.276;6.472;2023-06-10T15:26:37;27.20;99.90
4811;DHT22;2419;51.276;6.472;2023-06-10T15:29:05;27.10;99.90
4811;DHT22;2419;51.276;6.472;2023-06-10T15:31:33;27.00;99.90
4811;DHT22;2419;51.276;6.472;2023-06-10T15:34:03;27.00;99.90
4811;DHT22;2419;51.276;6.472;2023-06-10T15:36:33;27.00;99.90
4811;DHT22;2419;51.276;6.472;2023-06-10T15:39:04;27.00;99.90
4811;DHT22;2419;51.276;6.472;2023-06-10T15:41:33;27.00;99.90
4811;DHT22;2419;51.276;6.472;2023-06-10T15:44:01;27.10;99.90
4811;DHT22;2419;51.276;6.472;2023-06-10T15:46:29;27.20;99.90
4811;DHT22;2419;51.276;6.472;2023-06-10T15:48:58;27.20;99.90
4811;DHT22;2419;51.276;6.472;2023-06-10T15:51:28;27.30;99.90
4811;DHT22;2419;51.276;6.472;2023-06-10T15:53:56;27.40;99.90
4811;DHT22;2419;51.276;6.472;2023-06-10T15:56:24;27.50;99.90
4811;DHT22;2419;51.276;6.472;2023-06-10T15:58:52;27.60;99.90
4811;DHT22;2419;51.276;6.472;2023-06-10T16:01:20;27.60;99.90
4811;DHT22;2419;51.276;6.472;2023-06-10T16:03:48;27.60;99.90
4811;DHT22;2419;51.276;6.472;2023-06-10T16:06:17;27.70;99.90
4811;DHT22;2419;51.276;6.472;2023-06-10T16:08:46;27.70;99.90
4811;DHT22;2419;51.276;6.472;2023-06-10T16:11:14;27.70;99.90
4811;DHT22;2419;51.276;6.472;2023-06-10T16:13:42;27.80;99.90
4811;DHT22;2419;51.276;6.472;2023-06-10T16:16:10;27.80;99.90
4811;DHT22;2419;51.276;6.472;2023-06-10T16:18:38;27.80;99.90
4811;DHT22;2419;51.276;6.472;2023-06-10T16:21:06;27.80;99.90